sensor_id;sensor_type;location;lat;lon;timestamp;temperature;humidity
83405;SHT30;73331;48.168;20.776;2023-11-21T00:00:39;7.79;86.71
83405;SHT30;73331;48.168;20.776;2023-11-21T00:02:11;8.04;85.14
83405;SHT30;73331;48.168;20.776;2023-11-21T00:03:41;8.10;84.84
83405;SHT30;73331;48.168;20.776;2023-11-21T00:05:13;8.24;83.93
83405;SHT30;73331;48.168;20.776;2023-11-21T00:06:44;8.10;83.88
83405;SHT30;73331;48.168;20.776;2023-11-21T00:08:17;7.98;84.41
83405;SHT30;73331;48.168;20.776;2023-11-21T00:09:48;8.00;84.57
83405;SHT30;73331;48.168;20.776;2023-11-21T00:11:18;7.53;85.57
83405;SHT30;73331;48.168;20.776;2023-11-21T00:12:49;7.95;85.07
83405;SHT30;73331;48.168;20.776;2023-11-21T00:14:19;7.65;85.05
83405;SHT30;73331;48.168;20.776;2023-11-21T00:15:50;7.42;86.11
83405;SHT30;73331;48.168;20.776;2023-11-21T00:17:21;6.99;87.94
83405;SHT30;73331;48.168;20.776;2023-11-21T00:18:51;6.81;89.12
83405;SHT30;73331;48.168;20.776;2023-11-21T00:20:22;7.59;87.13
83405;SHT30;73331;48.168;20.776;2023-11-21T00:21:52;7.89;85.60
83405;SHT30;73331;48.168;20.776;2023-11-21T00:23:23;7.73;85.02
83405;SHT30;73331;48.168;20.776;2023-11-21T00:24:53;7.28;86.68
83405;SHT30;73331;48.168;20.776;2023-11-21T00:26:24;7.26;87.04
83405;SHT30;73331;48.168;20.776;2023-11-21T00:27:55;7.01;88.63
83405;SHT30;73331;48.168;20.776;2023-11-21T00:29:25;6.63;89.57
83405;SHT30;73331;48.168;20.776;2023-11-21T00:30:56;6.47;90.37
83405;SHT30;73331;48.168;20.776;2023-11-21T00:32:27;6.07;91.73
83405;SHT30;73331;48.168;20.776;2023-11-21T00:33:57;5.90;92.99
83405;SHT30;73331;48.168;20.776;2023-11-21T00:35:28;6.00;93.17
83405;SHT30;73331;48.168;20.776;2023-11-21T00:36:58;6.31;92.88
83405;SHT30;73331;48.168;20.776;2023-11-21T00:38:29;6.71;91.67
83405;SHT30;73331;48.168;20.776;2023-11-21T00:40:00;6.20;92.09
83405;SHT30;73331;48.168;20.776;2023-11-21T00:41:35;5.86;93.09
83405;SHT30;73331;48.168;20.776;2023-11-21T00:43:06;6.12;93.14
83405;SHT30;73331;48.168;20.776;2023-11-21T00:44:38;6.19;91.99
83405;SHT30;73331;48.168;20.776;2023-11-21T00:46:09;6.23;91.76
83405;SHT30;73331;48.168;20.776;2023-11-21T00:47:40;6.33;92.23
83405;SHT30;73331;48.168;20.776;2023-11-21T00:49:10;6.10;92.34
83405;SHT30;73331;48.168;20.776;2023-11-21T00:50:41;5.93;93.39
83405;SHT30;73331;48.168;20.776;2023-11-21T00:52:12;5.86;93.21
83405;SHT30;73331;48.168;20.776;2023-11-21T00:53:42;6.03;92.99
83405;SHT30;73331;48.168;20.776;2023-11-21T00:55:13;6.44;92.29
83405;SHT30;73331;48.168;20.776;2023-11-21T00:56:43;6.73;91.28
83405;SHT30;73331;48.168;20.776;2023-11-21T00:58:14;6.85;90.54
83405;SHT30;73331;48.168;20.776;2023-11-21T00:59:45;7.01;89.37
83405;SHT30;73331;48.168;20.776;2023-11-21T01:01:16;6.34;90.01
83405;SHT30;73331;48.168;20.776;2023-11-21T01:02:47;6.73;90.69
83405;SHT30;73331;48.168;20.776;2023-11-21T01:04:18;7.26;87.58
83405;SHT30;73331;48.168;20.776;2023-11-21T01:05:49;7.52;86.41
83405;SHT30;73331;48.168;20.776;2023-11-21T01:07:20;7.56;85.90
83405;SHT30;73331;48.168;20.776;2023-11-21T01:08:51;7.80;85.40
83405;SHT30;73331;48.168;20.776;2023-11-21T01:10:21;7.33;85.49
83405;SHT30;73331;48.168;20.776;2023-11-21T01:11:52;6.71;87.75
83405;SHT30;73331;48.168;20.776;2023-11-21T01:13:23;6.17;90.40
83405;SHT30;73331;48.168;20.776;2023-11-21T01:14:59;5.99;92.31
83405;SHT30;73331;48.168;20.776;2023-11-21T01:16:30;5.86;93.24
83405;SHT30;73331;48.168;20.776;2023-11-21T01:18:02;5.78;93.06
83405;SHT30;73331;48.168;20.776;2023-11-21T01:19:34;5.52;94.04
83405;SHT30;73331;48.168;20.776;2023-11-21T01:21:04;5.54;95.12
83405;SHT30;73331;48.168;20.776;2023-11-21T01:22:35;5.59;94.78
83405;SHT30;73331;48.168;20.776;2023-11-21T01:24:06;5.63;94.61
83405;SHT30;73331;48.168;20.776;2023-11-21T01:25:37;5.35;94.88
83405;SHT30;73331;48.168;20.776;2023-11-21T01:27:08;5.21;95.77
83405;SHT30;73331;48.168;20.776;2023-11-21T01:28:39;5.14;95.77
83405;SHT30;73331;48.168;20.776;2023-11-21T01:30:10;5.23;95.89
83405;SHT30;73331;48.168;20.776;2023-11-21T01:31:41;5.17;95.94
83405;SHT30;73331;48.168;20.776;2023-11-21T01:33:12;5.20;96.56
83405;SHT30;73331;48.168;20.776;2023-11-21T01:34:42;5.47;96.15
83405;SHT30;73331;48.168;20.776;2023-11-21T01:36:13;5.37;96.27
83405;SHT30;73331;48.168;20.776;2023-11-21T01:37:44;5.31;96.22
83405;SHT30;73331;48.168;20.776;2023-11-21T01:39:15;5.27;96.81
83405;SHT30;73331;48.168;20.776;2023-11-21T01:40:46;5.56;96.50
83405;SHT30;73331;48.168;20.776;2023-11-21T01:42:17;5.58;96.01
83405;SHT30;73331;48.168;20.776;2023-11-21T01:43:48;5.39;96.08
83405;SHT30;73331;48.168;20.776;2023-11-21T01:45:19;5.37;95.74
83405;SHT30;73331;48.168;20.776;2023-11-21T01:46:50;5.38;96.04
83405;SHT30;73331;48.168;20.776;2023-11-21T01:48:22;5.39;96.57
83405;SHT30;73331;48.168;20.776;2023-11-21T01:49:53;5.45;96.18
83405;SHT30;73331;48.168;20.776;2023-11-21T01:51:24;5.48;96.15
83405;SHT30;73331;48.168;20.776;2023-11-21T01:52:56;5.39;96.11
83405;SHT30;73331;48.168;20.776;2023-11-21T01:54:27;6.12;95.35
83405;SHT30;73331;48.168;20.776;2023-11-21T01:56:01;6.21;94.23
83405;SHT30;73331;48.168;20.776;2023-11-21T01:57:32;6.57;92.74
83405;SHT30;73331;48.168;20.776;2023-11-21T01:59:03;6.57;91.96
83405;SHT30;73331;48.168;20.776;2023-11-21T02:00:33;6.84;90.78
83405;SHT30;73331;48.168;20.776;2023-11-21T02:02:05;7.09;89.65
83405;SHT30;73331;48.168;20.776;2023-11-21T02:03:36;7.19;88.81
83405;SHT30;73331;48.168;20.776;2023-11-21T02:05:07;7.19;88.39
83405;SHT30;73331;48.168;20.776;2023-11-21T02:06:39;7.52;87.42
83405;SHT30;73331;48.168;20.776;2023-11-21T02:08:09;7.66;86.30
83405;SHT30;73331;48.168;20.776;2023-11-21T02:09:40;7.58;86.25
83405;SHT30;73331;48.168;20.776;2023-11-21T02:11:12;7.50;86.36
83405;SHT30;73331;48.168;20.776;2023-11-21T02:12:44;7.38;86.87
83405;SHT30;73331;48.168;20.776;2023-11-21T02:14:14;7.28;87.47
83405;SHT30;73331;48.168;20.776;2023-11-21T02:15:45;7.06;86.64
83405;SHT30;73331;48.168;20.776;2023-11-21T02:17:16;6.92;88.17
83405;SHT30;73331;48.168;20.776;2023-11-21T02:18:48;7.39;87.71
83405;SHT30;73331;48.168;20.776;2023-11-21T02:20:20;7.55;86.76
83405;SHT30;73331;48.168;20.776;2023-11-21T02:21:53;7.70;85.51
83405;SHT30;73331;48.168;20.776;2023-11-21T02:23:23;7.53;86.38
83405;SHT30;73331;48.168;20.776;2023-11-21T02:24:59;7.46;86.33
83405;SHT30;73331;48.168;20.776;2023-11-21T02:26:29;7.58;85.97
83405;SHT30;73331;48.168;20.776;2023-11-21T02:28:01;7.42;85.46
83405;SHT30;73331;48.168;20.776;2023-11-21T02:29:32;6.30;88.43
83405;SHT30;73331;48.168;20.776;2023-11-21T02:31:03;6.63;89.08
83405;SHT30;73331;48.168;20.776;2023-11-21T02:32:35;7.06;88.14
83405;SHT30;73331;48.168;20.776;2023-11-21T02:34:05;7.11;87.88
83405;SHT30;73331;48.168;20.776;2023-11-21T02:35:36;7.12;87.26
83405;SHT30;73331;48.168;20.776;2023-11-21T02:37:08;7.06;87.44
83405;SHT30;73331;48.168;20.776;2023-11-21T02:38:38;6.95;87.39
83405;SHT30;73331;48.168;20.776;2023-11-21T02:40:10;6.94;87.60
83405;SHT30;73331;48.168;20.776;2023-11-21T02:41:43;7.01;87.93
83405;SHT30;73331;48.168;20.776;2023-11-21T02:43:14;6.75;88.42
83405;SHT30;73331;48.168;20.776;2023-11-21T02:44:45;6.75;87.98
83405;SHT30;73331;48.168;20.776;2023-11-21T02:46:15;5.95;89.48
83405;SHT30;73331;48.168;20.776;2023-11-21T02:47:46;5.58;91.66
83405;SHT30;73331;48.168;20.776;2023-11-21T02:49:17;5.76;92.58
83405;SHT30;73331;48.168;20.776;2023-11-21T02:50:47;6.58;90.12
83405;SHT30;73331;48.168;20.776;2023-11-21T02:52:18;6.89;88.16
83405;SHT30;73331;48.168;20.776;2023-11-21T02:53:49;7.08;87.10
83405;SHT30;73331;48.168;20.776;2023-11-21T02:55:21;7.14;86.64
83405;SHT30;73331;48.168;20.776;2023-11-21T02:56:52;6.55;87.21
83405;SHT30;73331;48.168;20.776;2023-11-21T02:58:22;6.16;89.19
83405;SHT30;73331;48.168;20.776;2023-11-21T02:59:53;5.92;89.99
83405;SHT30;73331;48.168;20.776;2023-11-21T03:01:23;6.41;89.16
83405;SHT30;73331;48.168;20.776;2023-11-21T03:02:55;6.14;88.38
83405;SHT30;73331;48.168;20.776;2023-11-21T03:04:26;6.06;89.94
83405;SHT30;73331;48.168;20.776;2023-11-21T03:05:57;6.03;89.93
83405;SHT30;73331;48.168;20.776;2023-11-21T03:07:27;5.75;90.38
83405;SHT30;73331;48.168;20.776;2023-11-21T03:08:58;5.88;89.88
83405;SHT30;73331;48.168;20.776;2023-11-21T03:10:29;5.92;90.88
83405;SHT30;73331;48.168;20.776;2023-11-21T03:11:59;5.80;90.20
83405;SHT30;73331;48.168;20.776;2023-11-21T03:13:30;5.65;91.13
83405;SHT30;73331;48.168;20.776;2023-11-21T03:15:00;6.41;90.07
83405;SHT30;73331;48.168;20.776;2023-11-21T03:16:32;6.09;89.46
83405;SHT30;73331;48.168;20.776;2023-11-21T03:18:03;5.85;90.37
83405;SHT30;73331;48.168;20.776;2023-11-21T03:19:35;5.63;91.57
83405;SHT30;73331;48.168;20.776;2023-11-21T03:21:06;5.41;92.45
83405;SHT30;73331;48.168;20.776;2023-11-21T03:22:39;5.31;93.02
83405;SHT30;73331;48.168;20.776;2023-11-21T03:24:09;5.24;93.79
83405;SHT30;73331;48.168;20.776;2023-11-21T03:25:40;5.32;93.73
83405;SHT30;73331;48.168;20.776;2023-11-21T03:27:11;5.35;93.89
83405;SHT30;73331;48.168;20.776;2023-11-21T03:28:42;5.31;93.17
83405;SHT30;73331;48.168;20.776;2023-11-21T03:30:13;5.42;93.47
83405;SHT30;73331;48.168;20.776;2023-11-21T03:31:43;5.32;93.38
83405;SHT30;73331;48.168;20.776;2023-11-21T03:33:14;5.23;93.47
83405;SHT30;73331;48.168;20.776;2023-11-21T03:34:57;5.14;94.12
83405;SHT30;73331;48.168;20.776;2023-11-21T03:36:28;5.14;94.27
83405;SHT30;73331;48.168;20.776;2023-11-21T03:37:59;5.37;93.87
83405;SHT30;73331;48.168;20.776;2023-11-21T03:39:29;5.18;93.53
83405;SHT30;73331;48.168;20.776;2023-11-21T03:41:00;5.11;93.99
83405;SHT30;73331;48.168;20.776;2023-11-21T03:42:30;5.11;94.18
83405;SHT30;73331;48.168;20.776;2023-11-21T03:44:01;5.07;94.22
83405;SHT30;73331;48.168;20.776;2023-11-21T03:45:32;5.11;94.39
83405;SHT30;73331;48.168;20.776;2023-11-21T03:47:03;5.21;94.58
83405;SHT30;73331;48.168;20.776;2023-11-21T03:48:34;5.23;94.30
83405;SHT30;73331;48.168;20.776;2023-11-21T03:50:06;5.45;94.23
83405;SHT30;73331;48.168;20.776;2023-11-21T03:51:36;5.23;94.11
83405;SHT30;73331;48.168;20.776;2023-11-21T03:53:07;5.35;93.87
83405;SHT30;73331;48.168;20.776;2023-11-21T03:54:38;5.20;93.80
83405;SHT30;73331;48.168;20.776;2023-11-21T03:56:09;5.17;93.85
83405;SHT30;73331;48.168;20.776;2023-11-21T03:57:40;5.25;93.81
83405;SHT30;73331;48.168;20.776;2023-11-21T03:59:10;5.13;93.74
83405;SHT30;73331;48.168;20.776;2023-11-21T04:00:42;5.03;94.30
83405;SHT30;73331;48.168;20.776;2023-11-21T04:02:12;5.04;94.64
83405;SHT30;73331;48.168;20.776;2023-11-21T04:03:43;5.05;94.46
83405;SHT30;73331;48.168;20.776;2023-11-21T04:05:13;5.05;94.46
83405;SHT30;73331;48.168;20.776;2023-11-21T04:06:44;5.07;94.65
83405;SHT30;73331;48.168;20.776;2023-11-21T04:08:15;5.44;94.14
83405;SHT30;73331;48.168;20.776;2023-11-21T04:09:46;5.52;93.39
83405;SHT30;73331;48.168;20.776;2023-11-21T04:11:16;5.55;93.02
83405;SHT30;73331;48.168;20.776;2023-11-21T04:12:47;5.79;91.63
83405;SHT30;73331;48.168;20.776;2023-11-21T04:14:19;5.78;90.94
83405;SHT30;73331;48.168;20.776;2023-11-21T04:15:50;5.78;90.40
83405;SHT30;73331;48.168;20.776;2023-11-21T04:17:20;5.76;90.82
83405;SHT30;73331;48.168;20.776;2023-11-21T04:18:51;5.80;90.15
83405;SHT30;73331;48.168;20.776;2023-11-21T04:20:21;5.34;92.28
83405;SHT30;73331;48.168;20.776;2023-11-21T04:21:54;5.32;92.97
83405;SHT30;73331;48.168;20.776;2023-11-21T04:23:24;5.42;92.29
83405;SHT30;73331;48.168;20.776;2023-11-21T04:24:55;5.89;91.10
83405;SHT30;73331;48.168;20.776;2023-11-21T04:26:26;5.68;90.28
83405;SHT30;73331;48.168;20.776;2023-11-21T04:27:56;5.23;91.91
83405;SHT30;73331;48.168;20.776;2023-11-21T04:29:27;5.10;93.16
83405;SHT30;73331;48.168;20.776;2023-11-21T04:30:58;5.05;93.61
83405;SHT30;73331;48.168;20.776;2023-11-21T04:32:28;4.97;95.28
83405;SHT30;73331;48.168;20.776;2023-11-21T04:33:59;4.93;94.55
83405;SHT30;73331;48.168;20.776;2023-11-21T04:35:29;5.31;94.23
83405;SHT30;73331;48.168;20.776;2023-11-21T04:37:00;5.65;93.31
83405;SHT30;73331;48.168;20.776;2023-11-21T04:38:31;6.24;90.35
83405;SHT30;73331;48.168;20.776;2023-11-21T04:40:01;6.30;89.99
83405;SHT30;73331;48.168;20.776;2023-11-21T04:41:36;5.92;90.14
83405;SHT30;73331;48.168;20.776;2023-11-21T04:43:09;5.69;89.99
83405;SHT30;73331;48.168;20.776;2023-11-21T04:44:40;5.44;91.22
83405;SHT30;73331;48.168;20.776;2023-11-21T04:46:11;5.14;92.86
83405;SHT30;73331;48.168;20.776;2023-11-21T04:47:42;5.23;93.03
83405;SHT30;73331;48.168;20.776;2023-11-21T04:49:14;5.17;92.99
83405;SHT30;73331;48.168;20.776;2023-11-21T04:50:44;5.10;93.68
83405;SHT30;73331;48.168;20.776;2023-11-21T04:52:15;5.07;93.91
83405;SHT30;73331;48.168;20.776;2023-11-21T04:53:46;5.05;94.27
83405;SHT30;73331;48.168;20.776;2023-11-21T04:55:16;5.05;94.31
83405;SHT30;73331;48.168;20.776;2023-11-21T04:56:47;5.07;94.16
83405;SHT30;73331;48.168;20.776;2023-11-21T04:58:17;4.94;94.28
83405;SHT30;73331;48.168;20.776;2023-11-21T04:59:49;5.15;94.07
83405;SHT30;73331;48.168;20.776;2023-11-21T05:01:20;4.98;93.96
83405;SHT30;73331;48.168;20.776;2023-11-21T05:02:51;4.84;95.09
83405;SHT30;73331;48.168;20.776;2023-11-21T05:04:22;4.81;94.68
83405;SHT30;73331;48.168;20.776;2023-11-21T05:05:53;4.81;95.05
83405;SHT30;73331;48.168;20.776;2023-11-21T05:07:23;4.85;95.18
83405;SHT30;73331;48.168;20.776;2023-11-21T05:08:54;5.13;94.92
83405;SHT30;73331;48.168;20.776;2023-11-21T05:10:25;5.52;94.38
83405;SHT30;73331;48.168;20.776;2023-11-21T05:11:55;5.85;93.20
83405;SHT30;73331;48.168;20.776;2023-11-21T05:13:26;6.13;90.79
83405;SHT30;73331;48.168;20.776;2023-11-21T05:14:58;6.61;88.45
83405;SHT30;73331;48.168;20.776;2023-11-21T05:16:28;6.48;87.76
83405;SHT30;73331;48.168;20.776;2023-11-21T05:17:59;5.79;88.96
83405;SHT30;73331;48.168;20.776;2023-11-21T05:19:30;5.42;90.85
83405;SHT30;73331;48.168;20.776;2023-11-21T05:21:01;5.30;91.83
83405;SHT30;73331;48.168;20.776;2023-11-21T05:22:32;5.13;93.13
83405;SHT30;73331;48.168;20.776;2023-11-21T05:24:03;5.07;93.39
83405;SHT30;73331;48.168;20.776;2023-11-21T05:25:35;4.98;93.46
83405;SHT30;73331;48.168;20.776;2023-11-21T05:27:06;4.97;93.68
83405;SHT30;73331;48.168;20.776;2023-11-21T05:28:36;5.95;92.22
83405;SHT30;73331;48.168;20.776;2023-11-21T05:30:07;6.50;88.81
83405;SHT30;73331;48.168;20.776;2023-11-21T05:31:42;6.54;87.45
83405;SHT30;73331;48.168;20.776;2023-11-21T05:33:13;6.20;88.96
83405;SHT30;73331;48.168;20.776;2023-11-21T05:34:43;5.68;89.30
83405;SHT30;73331;48.168;20.776;2023-11-21T05:36:14;5.98;90.08
83405;SHT30;73331;48.168;20.776;2023-11-21T05:37:47;6.57;88.42
83405;SHT30;73331;48.168;20.776;2023-11-21T05:39:18;6.85;86.49
83405;SHT30;73331;48.168;20.776;2023-11-21T05:40:49;6.85;87.26
83405;SHT30;73331;48.168;20.776;2023-11-21T05:42:20;6.65;86.74
83405;SHT30;73331;48.168;20.776;2023-11-21T05:43:51;6.88;86.59
83405;SHT30;73331;48.168;20.776;2023-11-21T05:45:21;6.21;87.04
83405;SHT30;73331;48.168;20.776;2023-11-21T05:46:52;5.88;88.81
83405;SHT30;73331;48.168;20.776;2023-11-21T05:48:23;5.79;90.33
83405;SHT30;73331;48.168;20.776;2023-11-21T05:49:54;6.13;89.64
83405;SHT30;73331;48.168;20.776;2023-11-21T05:51:24;6.70;87.30
83405;SHT30;73331;48.168;20.776;2023-11-21T05:52:55;6.02;88.03
83405;SHT30;73331;48.168;20.776;2023-11-21T05:54:26;5.60;89.93
83405;SHT30;73331;48.168;20.776;2023-11-21T05:55:56;5.25;91.43
83405;SHT30;73331;48.168;20.776;2023-11-21T05:57:27;5.95;90.90
83405;SHT30;73331;48.168;20.776;2023-11-21T05:58:57;6.38;88.08
83405;SHT30;73331;48.168;20.776;2023-11-21T06:00:28;6.33;88.18
83405;SHT30;73331;48.168;20.776;2023-11-21T06:01:59;6.34;88.09
83405;SHT30;73331;48.168;20.776;2023-11-21T06:03:30;5.73;88.53
83405;SHT30;73331;48.168;20.776;2023-11-21T06:05:01;5.34;90.51
83405;SHT30;73331;48.168;20.776;2023-11-21T06:06:31;5.65;90.72
83405;SHT30;73331;48.168;20.776;2023-11-21T06:08:02;6.14;89.98
83405;SHT30;73331;48.168;20.776;2023-11-21T06:09:32;5.89;88.98
83405;SHT30;73331;48.168;20.776;2023-11-21T06:11:03;6.36;88.46
83405;SHT30;73331;48.168;20.776;2023-11-21T06:12:34;6.03;87.30
83405;SHT30;73331;48.168;20.776;2023-11-21T06:14:06;6.47;87.85
83405;SHT30;73331;48.168;20.776;2023-11-21T06:15:38;6.54;87.15
83405;SHT30;73331;48.168;20.776;2023-11-21T06:17:09;6.44;87.02
83405;SHT30;73331;48.168;20.776;2023-11-21T06:18:40;6.00;87.61
83405;SHT30;73331;48.168;20.776;2023-11-21T06:20:11;5.80;88.36
83405;SHT30;73331;48.168;20.776;2023-11-21T06:21:47;6.12;89.26
83405;SHT30;73331;48.168;20.776;2023-11-21T06:23:18;6.60;87.30
83405;SHT30;73331;48.168;20.776;2023-11-21T06:24:48;6.85;85.74
83405;SHT30;73331;48.168;20.776;2023-11-21T06:26:19;6.83;86.16
83405;SHT30;73331;48.168;20.776;2023-11-21T06:27:50;5.96;86.86
83405;SHT30;73331;48.168;20.776;2023-11-21T06:29:23;5.49;89.05
83405;SHT30;73331;48.168;20.776;2023-11-21T06:30:53;5.23;90.80
83405;SHT30;73331;48.168;20.776;2023-11-21T06:32:24;5.59;90.75
83405;SHT30;73331;48.168;20.776;2023-11-21T06:33:54;6.07;89.79
83405;SHT30;73331;48.168;20.776;2023-11-21T06:35:25;5.70;89.12
83405;SHT30;73331;48.168;20.776;2023-11-21T06:36:58;6.29;88.09
83405;SHT30;73331;48.168;20.776;2023-11-21T06:38:28;6.61;86.87
83405;SHT30;73331;48.168;20.776;2023-11-21T06:40:00;6.68;86.74
83405;SHT30;73331;48.168;20.776;2023-11-21T06:41:31;6.84;85.83
83405;SHT30;73331;48.168;20.776;2023-11-21T06:43:02;6.95;85.18
83405;SHT30;73331;48.168;20.776;2023-11-21T06:44:32;6.45;85.79
83405;SHT30;73331;48.168;20.776;2023-11-21T06:46:04;6.07;87.29
83405;SHT30;73331;48.168;20.776;2023-11-21T06:47:35;5.45;89.62
83405;SHT30;73331;48.168;20.776;2023-11-21T06:49:05;5.49;89.91
83405;SHT30;73331;48.168;20.776;2023-11-21T06:50:36;6.02;89.57
83405;SHT30;73331;48.168;20.776;2023-11-21T06:52:07;5.70;88.77
83405;SHT30;73331;48.168;20.776;2023-11-21T06:53:39;6.24;87.73
83405;SHT30;73331;48.168;20.776;2023-11-21T06:55:10;6.30;87.61
83405;SHT30;73331;48.168;20.776;2023-11-21T06:56:41;6.89;85.66
83405;SHT30;73331;48.168;20.776;2023-11-21T06:58:12;6.44;85.86
83405;SHT30;73331;48.168;20.776;2023-11-21T06:59:42;6.74;86.06
83405;SHT30;73331;48.168;20.776;2023-11-21T07:01:13;6.87;85.54
83405;SHT30;73331;48.168;20.776;2023-11-21T07:02:44;6.71;85.24
83405;SHT30;73331;48.168;20.776;2023-11-21T07:04:15;7.05;84.62
83405;SHT30;73331;48.168;20.776;2023-11-21T07:05:46;7.15;83.96
83405;SHT30;73331;48.168;20.776;2023-11-21T07:07:18;7.05;84.73
83405;SHT30;73331;48.168;20.776;2023-11-21T07:08:48;6.95;84.98
83405;SHT30;73331;48.168;20.776;2023-11-21T07:10:19;6.98;84.48
83405;SHT30;73331;48.168;20.776;2023-11-21T07:11:50;6.88;84.57
83405;SHT30;73331;48.168;20.776;2023-11-21T07:13:20;6.73;85.06
83405;SHT30;73331;48.168;20.776;2023-11-21T07:14:52;6.65;85.70
83405;SHT30;73331;48.168;20.776;2023-11-21T07:16:23;6.24;85.57
83405;SHT30;73331;48.168;20.776;2023-11-21T07:17:54;6.43;86.49
83405;SHT30;73331;48.168;20.776;2023-11-21T07:19:25;6.77;84.88
83405;SHT30;73331;48.168;20.776;2023-11-21T07:20:56;6.77;84.39
83405;SHT30;73331;48.168;20.776;2023-11-21T07:22:27;6.75;85.02
83405;SHT30;73331;48.168;20.776;2023-11-21T07:24:05;6.80;84.95
83405;SHT30;73331;48.168;20.776;2023-11-21T07:25:36;6.80;85.09
83405;SHT30;73331;48.168;20.776;2023-11-21T07:27:07;6.81;84.32
83405;SHT30;73331;48.168;20.776;2023-11-21T07:28:38;6.81;84.21
83405;SHT30;73331;48.168;20.776;2023-11-21T07:30:09;6.78;84.56
83405;SHT30;73331;48.168;20.776;2023-11-21T07:31:40;6.74;84.79
83405;SHT30;73331;48.168;20.776;2023-11-21T07:33:11;6.70;85.50
83405;SHT30;73331;48.168;20.776;2023-11-21T07:34:42;6.58;85.50
83405;SHT30;73331;48.168;20.776;2023-11-21T07:36:14;6.65;84.85
83405;SHT30;73331;48.168;20.776;2023-11-21T07:37:44;6.70;84.80
83405;SHT30;73331;48.168;20.776;2023-11-21T07:39:15;6.75;84.37
83405;SHT30;73331;48.168;20.776;2023-11-21T07:40:46;6.61;85.60
83405;SHT30;73331;48.168;20.776;2023-11-21T07:42:17;5.89;86.95
83405;SHT30;73331;48.168;20.776;2023-11-21T07:43:48;6.23;87.91
83405;SHT30;73331;48.168;20.776;2023-11-21T07:45:18;6.51;86.59
83405;SHT30;73331;48.168;20.776;2023-11-21T07:46:49;6.38;85.78
83405;SHT30;73331;48.168;20.776;2023-11-21T07:48:20;6.77;85.65
83405;SHT30;73331;48.168;20.776;2023-11-21T07:49:51;6.65;85.61
83405;SHT30;73331;48.168;20.776;2023-11-21T07:51:21;6.89;83.32
83405;SHT30;73331;48.168;20.776;2023-11-21T07:52:52;6.99;83.24
83405;SHT30;73331;48.168;20.776;2023-11-21T07:54:24;7.01;83.25
83405;SHT30;73331;48.168;20.776;2023-11-21T07:55:56;7.04;82.77
83405;SHT30;73331;48.168;20.776;2023-11-21T07:57:27;7.08;82.42
83405;SHT30;73331;48.168;20.776;2023-11-21T07:58:58;6.99;82.13
83405;SHT30;73331;48.168;20.776;2023-11-21T08:00:29;6.85;82.79
83405;SHT30;73331;48.168;20.776;2023-11-21T08:02:01;6.83;82.89
83405;SHT30;73331;48.168;20.776;2023-11-21T08:03:32;6.80;83.19
83405;SHT30;73331;48.168;20.776;2023-11-21T08:05:02;6.54;84.48
83405;SHT30;73331;48.168;20.776;2023-11-21T08:06:33;6.80;83.88
83405;SHT30;73331;48.168;20.776;2023-11-21T08:08:04;6.83;83.29
83405;SHT30;73331;48.168;20.776;2023-11-21T08:09:35;6.16;85.21
83405;SHT30;73331;48.168;20.776;2023-11-21T08:11:05;5.78;87.93
83405;SHT30;73331;48.168;20.776;2023-11-21T08:12:38;5.83;88.57
83405;SHT30;73331;48.168;20.776;2023-11-21T08:14:08;6.24;86.92
83405;SHT30;73331;48.168;20.776;2023-11-21T08:15:39;5.76;87.26
83405;SHT30;73331;48.168;20.776;2023-11-21T08:17:11;5.41;89.23
83405;SHT30;73331;48.168;20.776;2023-11-21T08:18:41;5.18;90.92
83405;SHT30;73331;48.168;20.776;2023-11-21T08:20:12;5.13;91.86
83405;SHT30;73331;48.168;20.776;2023-11-21T08:21:43;5.05;91.60
83405;SHT30;73331;48.168;20.776;2023-11-21T08:23:16;5.07;92.14
83405;SHT30;73331;48.168;20.776;2023-11-21T08:24:47;5.00;92.64
83405;SHT30;73331;48.168;20.776;2023-11-21T08:26:18;4.97;92.70
83405;SHT30;73331;48.168;20.776;2023-11-21T08:27:48;5.15;92.50
83405;SHT30;73331;48.168;20.776;2023-11-21T08:29:19;5.21;92.23
83405;SHT30;73331;48.168;20.776;2023-11-21T08:30:50;5.17;91.92
83405;SHT30;73331;48.168;20.776;2023-11-21T08:32:21;5.17;91.73
83405;SHT30;73331;48.168;20.776;2023-11-21T08:33:52;5.30;91.67
83405;SHT30;73331;48.168;20.776;2023-11-21T08:35:26;5.37;90.54
83405;SHT30;73331;48.168;20.776;2023-11-21T08:36:56;5.32;91.87
83405;SHT30;73331;48.168;20.776;2023-11-21T08:38:27;5.28;91.79
83405;SHT30;73331;48.168;20.776;2023-11-21T08:39:59;5.49;91.44
83405;SHT30;73331;48.168;20.776;2023-11-21T08:41:30;5.21;91.22
83405;SHT30;73331;48.168;20.776;2023-11-21T08:43:00;5.37;91.54
83405;SHT30;73331;48.168;20.776;2023-11-21T08:44:31;5.17;91.23
83405;SHT30;73331;48.168;20.776;2023-11-21T08:46:02;5.18;91.59
83405;SHT30;73331;48.168;20.776;2023-11-21T08:47:33;5.03;92.64
83405;SHT30;73331;48.168;20.776;2023-11-21T08:49:04;5.10;92.33
83405;SHT30;73331;48.168;20.776;2023-11-21T08:50:34;5.08;92.72
83405;SHT30;73331;48.168;20.776;2023-11-21T08:52:05;5.13;93.01
83405;SHT30;73331;48.168;20.776;2023-11-21T08:53:37;5.34;92.77
83405;SHT30;73331;48.168;20.776;2023-11-21T08:55:08;5.24;92.16
83405;SHT30;73331;48.168;20.776;2023-11-21T08:56:39;5.58;91.81
83405;SHT30;73331;48.168;20.776;2023-11-21T08:58:10;5.27;91.23
83405;SHT30;73331;48.168;20.776;2023-11-21T08:59:42;5.28;92.18
83405;SHT30;73331;48.168;20.776;2023-11-21T09:01:13;5.21;92.35
83405;SHT30;73331;48.168;20.776;2023-11-21T09:02:44;5.41;92.21
83405;SHT30;73331;48.168;20.776;2023-11-21T09:04:15;6.17;89.11
83405;SHT30;73331;48.168;20.776;2023-11-21T09:05:45;6.38;87.80
83405;SHT30;73331;48.168;20.776;2023-11-21T09:07:16;6.26;87.60
83405;SHT30;73331;48.168;20.776;2023-11-21T09:08:47;6.34;87.27
83405;SHT30;73331;48.168;20.776;2023-11-21T09:10:17;6.37;86.54
83405;SHT30;73331;48.168;20.776;2023-11-21T09:11:48;6.73;86.26
83405;SHT30;73331;48.168;20.776;2023-11-21T09:13:20;6.43;85.69
83405;SHT30;73331;48.168;20.776;2023-11-21T09:14:50;6.31;87.24
83405;SHT30;73331;48.168;20.776;2023-11-21T09:16:21;6.24;86.58
83405;SHT30;73331;48.168;20.776;2023-11-21T09:17:52;6.26;87.18
83405;SHT30;73331;48.168;20.776;2023-11-21T09:19:22;6.13;87.48
83405;SHT30;73331;48.168;20.776;2023-11-21T09:20:53;5.85;89.55
83405;SHT30;73331;48.168;20.776;2023-11-21T09:22:24;6.51;87.60
83405;SHT30;73331;48.168;20.776;2023-11-21T09:24:00;6.24;87.66
83405;SHT30;73331;48.168;20.776;2023-11-21T09:25:30;6.14;88.03
83405;SHT30;73331;48.168;20.776;2023-11-21T09:27:01;6.38;86.58
83405;SHT30;73331;48.168;20.776;2023-11-21T09:28:32;6.23;86.89
83405;SHT30;73331;48.168;20.776;2023-11-21T09:30:03;5.70;89.61
83405;SHT30;73331;48.168;20.776;2023-11-21T09:31:35;5.76;89.58
83405;SHT30;73331;48.168;20.776;2023-11-21T09:33:06;5.54;90.17
83405;SHT30;73331;48.168;20.776;2023-11-21T09:34:40;5.63;90.78